createdAt,value
2018-11-11T00:00:01.195Z,998.19
2018-11-11T00:00:27.334Z,998.21
2018-11-11T00:00:53.463Z,998.13
2018-11-11T00:01:19.682Z,998.21
2018-11-11T00:01:46.093Z,998.18
2018-11-11T00:02:12.235Z,998.18
2018-11-11T00:02:38.425Z,998.15
2018-11-11T00:03:04.549Z,998.18
2018-11-11T00:03:30.710Z,998.21
2018-11-11T00:03:56.846Z,998.21
2018-11-11T00:04:22.985Z,998.2
2018-11-11T00:04:49.147Z,998.15
2018-11-11T00:05:15.290Z,998.26
2018-11-11T00:05:41.485Z,998.25
2018-11-11T00:06:07.612Z,998.25
2018-11-11T00:06:33.760Z,998.23
2018-11-11T00:06:59.885Z,998.26
2018-11-11T00:07:26.016Z,998.26
2018-11-11T00:07:52.159Z,998.22
2018-11-11T00:08:18.318Z,998.23
2018-11-11T00:08:44.467Z,998.26
2018-11-11T00:09:10.639Z,998.24
2018-11-11T00:09:36.769Z,998.25
2018-11-11T00:10:02.965Z,998.22
2018-11-11T00:10:29.142Z,998.24
2018-11-11T00:10:55.284Z,998.2
2018-11-11T00:11:21.483Z,998.17
2018-11-11T00:11:47.582Z,998.21
2018-11-11T00:12:13.745Z,998.18
2018-11-11T00:12:39.880Z,998.19
2018-11-11T00:13:06.062Z,998.2
2018-11-11T00:13:32.180Z,998.24
2018-11-11T00:13:58.323Z,998.21
2018-11-11T00:14:24.461Z,998.2
2018-11-11T00:14:50.600Z,998.19
2018-11-11T00:15:16.751Z,998.19
2018-11-11T00:15:42.902Z,998.23
2018-11-11T00:16:09.033Z,998.19
2018-11-11T00:16:35.178Z,998.16
2018-11-11T00:17:01.325Z,998.17
2018-11-11T00:17:27.466Z,998.18
2018-11-11T00:17:53.601Z,998.17
2018-11-11T00:18:19.754Z,998.17
2018-11-11T00:18:45.903Z,998.1
2018-11-11T00:19:12.039Z,998.11
2018-11-11T00:19:38.169Z,998.1
2018-11-11T00:20:04.324Z,998.08
2018-11-11T00:20:30.485Z,998.06
2018-11-11T00:20:56.636Z,998.06
2018-11-11T00:21:22.765Z,998.1
2018-11-11T00:21:48.963Z,998.1
2018-11-11T00:22:15.045Z,998.09
2018-11-11T00:22:41.181Z,998.09
2018-11-11T00:23:07.344Z,998.12
2018-11-11T00:23:33.498Z,998.11
2018-11-11T00:23:59.631Z,998.13
2018-11-11T00:24:25.757Z,998.13
2018-11-11T00:24:51.899Z,998.15
2018-11-11T00:25:18.052Z,998.09
2018-11-11T00:25:44.179Z,998.07
2018-11-11T00:26:10.314Z,998.09
2018-11-11T00:26:36.441Z,998.11
2018-11-11T00:27:02.624Z,998.11
2018-11-11T00:27:28.756Z,998.09
2018-11-11T00:27:54.916Z,998.13
2018-11-11T00:28:21.102Z,998.07
2018-11-11T00:28:47.372Z,998.08
2018-11-11T00:29:13.404Z,998.13
2018-11-11T00:29:39.554Z,998.11
2018-11-11T00:30:05.680Z,998.09
2018-11-11T00:30:31.819Z,998.15
2018-11-11T00:30:57.946Z,998.12
2018-11-11T00:31:24.084Z,998.16
2018-11-11T00:31:50.226Z,998.16
2018-11-11T00:32:16.375Z,998.15
2018-11-11T00:32:42.512Z,998.11
2018-11-11T00:33:08.673Z,998.11
2018-11-11T00:33:34.798Z,998.14
2018-11-11T00:34:00.934Z,998.15
2018-11-11T00:34:27.090Z,998.17
2018-11-11T00:34:53.246Z,998.17
2018-11-11T00:35:19.382Z,998.14
2018-11-11T00:35:45.525Z,998.14
2018-11-11T00:36:11.642Z,998.13
2018-11-11T00:36:37.775Z,998.17
2018-11-11T00:37:03.912Z,998.14
2018-11-11T00:37:30.048Z,998.09
2018-11-11T00:37:56.203Z,998.13
2018-11-11T00:38:22.350Z,998.11
2018-11-11T00:38:48.481Z,998.1
2018-11-11T00:39:14.615Z,998.17
2018-11-11T00:39:40.780Z,998.08
2018-11-11T00:40:06.875Z,998.14
2018-11-11T00:40:33.032Z,998.1
2018-11-11T00:40:59.177Z,998.12
2018-11-11T00:41:25.305Z,998.06
2018-11-11T00:41:51.438Z,998.08
2018-11-11T00:42:17.573Z,998.12
2018-11-11T00:42:43.705Z,998.09
2018-11-11T00:43:09.861Z,998.07
2018-11-11T00:43:35.988Z,998.06
2018-11-11T00:44:02.114Z,998.05
2018-11-11T00:44:28.251Z,998.09
2018-11-11T00:44:54.412Z,998.07
2018-11-11T00:45:20.553Z,998.08
2018-11-11T00:45:46.685Z,998.09
2018-11-11T00:46:12.818Z,998.06
2018-11-11T00:46:38.953Z,998.1
2018-11-11T00:47:05.093Z,998.1
2018-11-11T00:47:31.260Z,998.09
2018-11-11T00:47:57.390Z,998.17
2018-11-11T00:48:23.524Z,998.1
2018-11-11T00:48:49.692Z,998.1
2018-11-11T00:49:15.813Z,998.08
2018-11-11T00:49:41.944Z,998.06
2018-11-11T00:50:08.082Z,998.1
2018-11-11T00:50:34.258Z,998.02
2018-11-11T00:51:00.390Z,998.03
2018-11-11T00:51:26.552Z,998.06
2018-11-11T00:51:52.682Z,998.03
2018-11-11T00:52:18.845Z,997.99
2018-11-11T00:52:44.985Z,998.04
2018-11-11T00:53:11.155Z,998.01
2018-11-11T00:53:37.316Z,997.98
2018-11-11T00:54:03.486Z,997.99
2018-11-11T00:54:29.623Z,998.02
2018-11-11T00:54:55.772Z,997.99
2018-11-11T00:55:21.925Z,998.03
2018-11-11T00:55:48.063Z,998.06
2018-11-11T00:56:14.188Z,998.02
2018-11-11T00:56:40.320Z,998.06
2018-11-11T00:57:06.452Z,998.04
2018-11-11T00:57:32.587Z,998.07
2018-11-11T00:57:58.723Z,998.06
2018-11-11T00:58:24.857Z,998.09
2018-11-11T00:58:51.011Z,998.07
2018-11-11T00:59:17.148Z,998.08
2018-11-11T00:59:43.283Z,998.06
2018-11-11T01:00:09.411Z,998.1
2018-11-11T01:00:35.553Z,998.06
2018-11-11T01:01:01.689Z,998.06
2018-11-11T01:01:27.823Z,998.07
2018-11-11T01:01:53.979Z,998.07
2018-11-11T01:02:20.145Z,998.03
2018-11-11T01:02:46.276Z,998.03
2018-11-11T01:03:12.408Z,997.99
2018-11-11T01:03:38.546Z,998.06
2018-11-11T01:04:04.677Z,998.02
2018-11-11T01:04:30.843Z,998.06
2018-11-11T01:04:56.975Z,998.03
2018-11-11T01:05:23.103Z,998.09
2018-11-11T01:05:49.236Z,998.05
2018-11-11T01:06:15.369Z,998.05
2018-11-11T01:06:41.517Z,998
2018-11-11T01:07:07.706Z,997.99
2018-11-11T01:07:33.845Z,998.03
2018-11-11T01:07:59.996Z,998
2018-11-11T01:08:26.180Z,998.02
2018-11-11T01:08:52.309Z,998.04
2018-11-11T01:09:18.436Z,998
2018-11-11T01:09:44.573Z,998.05
2018-11-11T01:10:10.711Z,998.05
2018-11-11T01:10:36.847Z,998.04
2018-11-11T01:11:02.995Z,998.02
2018-11-11T01:11:29.136Z,998.05
2018-11-11T01:11:55.286Z,998.01
2018-11-11T01:12:21.555Z,997.99
2018-11-11T01:12:47.578Z,998.01
2018-11-11T01:13:13.713Z,998
2018-11-11T01:13:39.850Z,997.98
2018-11-11T01:14:05.999Z,997.96
2018-11-11T01:14:32.124Z,997.96
2018-11-11T01:14:58.260Z,997.96
2018-11-11T01:15:24.391Z,997.95
2018-11-11T01:15:50.661Z,997.98
2018-11-11T01:16:16.797Z,997.95
2018-11-11T01:16:42.927Z,997.95
2018-11-11T01:17:09.059Z,997.95
2018-11-11T01:17:35.200Z,997.95
2018-11-11T01:18:01.327Z,997.96
2018-11-11T01:18:27.467Z,997.92
2018-11-11T01:18:53.610Z,997.92
2018-11-11T01:19:19.741Z,997.97
2018-11-11T01:19:45.879Z,997.94
2018-11-11T01:20:12.035Z,997.95
2018-11-11T01:20:38.169Z,997.96
2018-11-11T01:21:04.304Z,997.93
2018-11-11T01:21:30.437Z,997.89
2018-11-11T01:21:56.573Z,997.92
2018-11-11T01:22:22.717Z,997.91
2018-11-11T01:22:48.834Z,997.93
2018-11-11T01:23:14.999Z,997.91
2018-11-11T01:23:41.132Z,997.93
2018-11-11T01:24:07.271Z,997.96
2018-11-11T01:24:33.431Z,998.02
2018-11-11T01:24:59.572Z,997.95
2018-11-11T01:25:25.695Z,997.96
2018-11-11T01:25:51.829Z,998
2018-11-11T01:26:17.966Z,998.01
2018-11-11T01:26:44.097Z,998.04
2018-11-11T01:27:10.245Z,998.08
2018-11-11T01:27:36.373Z,998.02
2018-11-11T01:28:02.508Z,998.04
2018-11-11T01:28:28.638Z,998.01
2018-11-11T01:28:54.772Z,998.06
2018-11-11T01:29:20.898Z,998.06
2018-11-11T01:29:47.041Z,998.08
2018-11-11T01:30:13.180Z,998.11
2018-11-11T01:30:39.333Z,998.07
2018-11-11T01:31:05.489Z,998.08
2018-11-11T01:31:31.626Z,998.1
2018-11-11T01:31:57.759Z,998.06
2018-11-11T01:32:23.911Z,998.12
2018-11-11T01:32:50.047Z,998.1
2018-11-11T01:33:16.175Z,998.11
2018-11-11T01:33:42.329Z,998.07
2018-11-11T01:34:08.470Z,998.09
2018-11-11T01:34:34.608Z,998.1
2018-11-11T01:35:00.757Z,998.09
2018-11-11T01:35:26.908Z,998.08
2018-11-11T01:35:53.042Z,998.1
2018-11-11T01:36:19.181Z,998.12
2018-11-11T01:36:45.306Z,998.11
2018-11-11T01:37:11.461Z,998.09
2018-11-11T01:37:37.593Z,998.15
2018-11-11T01:38:03.771Z,998.1
2018-11-11T01:38:29.959Z,998.13
2018-11-11T01:38:56.060Z,998.13
2018-11-11T01:39:22.198Z,998.15
2018-11-11T01:39:48.328Z,998.11
2018-11-11T01:40:14.483Z,998.16
2018-11-11T01:40:40.615Z,998.19
2018-11-11T01:41:06.767Z,998.11
2018-11-11T01:41:32.904Z,998.13
2018-11-11T01:41:59.064Z,998.19
2018-11-11T01:42:25.211Z,998.16
2018-11-11T01:42:51.364Z,998.22
2018-11-11T01:43:17.504Z,998.19
2018-11-11T01:43:43.660Z,998.18
2018-11-11T01:44:09.790Z,998.27
2018-11-11T01:44:35.921Z,998.24
2018-11-11T01:45:02.048Z,998.26
2018-11-11T01:45:28.185Z,998.22
2018-11-11T01:45:54.319Z,998.22
2018-11-11T01:46:20.451Z,998.29
2018-11-11T01:46:46.583Z,998.25
2018-11-11T01:47:12.742Z,998.21
2018-11-11T01:47:38.880Z,998.25
2018-11-11T01:48:05.034Z,998.28
2018-11-11T01:48:31.157Z,998.3
2018-11-11T01:48:57.314Z,998.31
2018-11-11T01:49:23.452Z,998.27
2018-11-11T01:49:49.584Z,998.25
2018-11-11T01:50:15.724Z,998.29
2018-11-11T01:50:41.876Z,998.27
2018-11-11T01:51:08.051Z,998.27
2018-11-11T01:51:34.220Z,998.26
2018-11-11T01:52:00.380Z,998.27
2018-11-11T01:52:26.512Z,998.25
2018-11-11T01:52:52.683Z,998.29
2018-11-11T01:53:18.802Z,998.29
2018-11-11T01:53:44.930Z,998.27
2018-11-11T01:54:11.064Z,998.25
2018-11-11T01:54:37.203Z,998.23
2018-11-11T01:55:03.341Z,998.24
2018-11-11T01:55:29.474Z,998.21
2018-11-11T01:55:55.610Z,998.2
2018-11-11T01:56:21.743Z,998.22
2018-11-11T01:56:47.877Z,998.2
2018-11-11T01:57:14.015Z,998.26
2018-11-11T01:57:40.164Z,998.24
2018-11-11T01:58:06.304Z,998.2
2018-11-11T01:58:32.437Z,998.21
2018-11-11T01:58:58.570Z,998.21
2018-11-11T01:59:24.720Z,998.27
2018-11-11T01:59:50.892Z,998.25
2018-11-11T02:00:17.023Z,998.23
2018-11-11T02:00:43.163Z,998.26
2018-11-11T02:01:09.292Z,998.24
2018-11-11T02:01:35.422Z,998.26
2018-11-11T02:02:01.557Z,998.3
2018-11-11T02:02:27.691Z,998.26
2018-11-11T02:02:53.824Z,998.29
2018-11-11T02:03:19.960Z,998.32
2018-11-11T02:03:46.090Z,998.29
2018-11-11T02:04:12.227Z,998.35
2018-11-11T02:04:38.386Z,998.27
2018-11-11T02:05:04.568Z,998.29
2018-11-11T02:05:30.701Z,998.3
2018-11-11T02:05:56.829Z,998.29
2018-11-11T02:06:22.968Z,998.34
2018-11-11T02:06:49.097Z,998.3
2018-11-11T02:07:15.227Z,998.34
2018-11-11T02:07:41.365Z,998.33
2018-11-11T02:08:07.492Z,998.38
2018-11-11T02:08:33.632Z,998.32
2018-11-11T02:08:59.767Z,998.3
2018-11-11T02:09:25.893Z,998.34
2018-11-11T02:09:52.106Z,998.38
2018-11-11T02:10:18.227Z,998.33
2018-11-11T02:10:44.349Z,998.27
2018-11-11T02:11:10.476Z,998.32
2018-11-11T02:11:36.613Z,998.35
2018-11-11T02:12:02.746Z,998.31
2018-11-11T02:12:28.908Z,998.33
2018-11-11T02:12:55.043Z,998.38
2018-11-11T02:13:21.176Z,998.36
2018-11-11T02:13:47.324Z,998.32
2018-11-11T02:14:13.458Z,998.3
2018-11-11T02:14:39.602Z,998.33
2018-11-11T02:15:05.729Z,998.35
2018-11-11T02:15:31.858Z,998.3
2018-11-11T02:15:57.993Z,998.3
2018-11-11T02:16:24.126Z,998.33
2018-11-11T02:16:50.262Z,998.29
2018-11-11T02:17:16.392Z,998.31
2018-11-11T02:17:42.535Z,998.33
2018-11-11T02:18:08.662Z,998.26
2018-11-11T02:18:34.791Z,998.3
2018-11-11T02:19:00.931Z,998.26
2018-11-11T02:19:27.066Z,998.33
2018-11-11T02:19:53.227Z,998.3
2018-11-11T02:20:19.360Z,998.32
2018-11-11T02:20:45.503Z,998.23
2018-11-11T02:21:11.739Z,998.24
2018-11-11T02:21:37.876Z,998.25
2018-11-11T02:22:03.985Z,998.18
2018-11-11T02:22:30.120Z,998.19
2018-11-11T02:22:56.271Z,998.17
2018-11-11T02:23:22.398Z,998.18
2018-11-11T02:23:48.538Z,998.19
2018-11-11T02:24:14.664Z,998.21
2018-11-11T02:24:40.799Z,998.21
2018-11-11T02:25:06.932Z,998.17
2018-11-11T02:25:33.072Z,998.15
2018-11-11T02:25:59.219Z,998.16
2018-11-11T02:26:25.351Z,998.15
2018-11-11T02:26:51.492Z,998.07
2018-11-11T02:27:17.622Z,998.11
2018-11-11T02:27:43.781Z,998.04
2018-11-11T02:28:09.908Z,998.11
2018-11-11T02:28:36.066Z,998.08
2018-11-11T02:29:02.216Z,998.06
2018-11-11T02:29:28.349Z,998.07
2018-11-11T02:29:54.484Z,998.07
2018-11-11T02:30:20.633Z,998.06
2018-11-11T02:30:46.803Z,998.03
2018-11-11T02:31:12.976Z,998.09
2018-11-11T02:31:39.136Z,998.04
2018-11-11T02:32:05.269Z,998.13
2018-11-11T02:32:31.400Z,998.05
2018-11-11T02:32:57.549Z,998.05
2018-11-11T02:33:23.727Z,997.98
2018-11-11T02:33:49.871Z,998.07
2018-11-11T02:34:16.006Z,998.05
2018-11-11T02:34:42.137Z,998.08
2018-11-11T02:35:08.342Z,998.01
2018-11-11T02:35:34.510Z,998.08
2018-11-11T02:36:00.661Z,998.07
2018-11-11T02:36:26.824Z,998.05
2018-11-11T02:36:52.982Z,998.02
2018-11-11T02:37:19.155Z,998
2018-11-11T02:37:45.376Z,998.02
2018-11-11T02:38:11.461Z,998
2018-11-11T02:38:37.596Z,998.02
2018-11-11T02:39:03.775Z,997.96
2018-11-11T02:39:29.916Z,998
2018-11-11T02:39:56.046Z,997.96
2018-11-11T02:40:22.176Z,997.98
2018-11-11T02:40:48.313Z,997.97
2018-11-11T02:41:14.443Z,998
2018-11-11T02:41:40.574Z,998.02
2018-11-11T02:42:06.733Z,998.01
2018-11-11T02:42:32.885Z,998.04
2018-11-11T02:42:59.063Z,998.08
2018-11-11T02:43:25.225Z,998.02
2018-11-11T02:43:51.383Z,998.03
2018-11-11T02:44:17.511Z,998.01
2018-11-11T02:44:43.689Z,998.04
2018-11-11T02:45:09.854Z,998.06
2018-11-11T02:45:36.009Z,998.01
2018-11-11T02:46:02.141Z,997.99
2018-11-11T02:46:28.269Z,998
2018-11-11T02:46:54.432Z,997.99
2018-11-11T02:47:20.562Z,998.06
2018-11-11T02:47:46.767Z,998.02
2018-11-11T02:48:12.900Z,998.02
2018-11-11T02:48:39.059Z,998.04
2018-11-11T02:49:05.189Z,998.06
2018-11-11T02:49:31.338Z,998.08
2018-11-11T02:49:57.469Z,998.04
2018-11-11T02:50:23.607Z,998.08
2018-11-11T02:50:49.736Z,998.08
2018-11-11T02:51:15.887Z,998.11
2018-11-11T02:51:42.050Z,998.11
2018-11-11T02:52:08.185Z,998.07
2018-11-11T02:52:34.346Z,998.12
2018-11-11T02:53:00.472Z,998.13
2018-11-11T02:53:26.630Z,998.19
2018-11-11T02:53:52.801Z,998.16
2018-11-11T02:54:18.960Z,998.09
2018-11-11T02:54:45.137Z,998.12
2018-11-11T02:55:11.279Z,998.12
2018-11-11T02:55:37.430Z,998.08
2018-11-11T02:56:03.620Z,998.08
2018-11-11T02:56:29.817Z,998.05
2018-11-11T02:56:55.990Z,998.06
2018-11-11T02:57:22.148Z,998.04
2018-11-11T02:57:48.327Z,998.09
2018-11-11T02:58:14.468Z,998.08
2018-11-11T02:58:40.595Z,998.06
2018-11-11T02:59:06.754Z,998.05
2018-11-11T02:59:32.888Z,998.08
2018-11-11T02:59:59.023Z,998.03
2018-11-11T03:00:25.156Z,998.1
2018-11-11T03:00:51.293Z,998.03
2018-11-11T03:01:17.451Z,998.05
2018-11-11T03:01:43.586Z,998.1
2018-11-11T03:02:09.719Z,998.05
2018-11-11T03:02:35.871Z,998.05
2018-11-11T03:03:02.026Z,998.07
2018-11-11T03:03:28.181Z,998.13
2018-11-11T03:03:54.386Z,998.13
2018-11-11T03:04:20.572Z,998.09
2018-11-11T03:04:46.725Z,998.11
2018-11-11T03:05:12.854Z,998.1
2018-11-11T03:05:39.009Z,998.09
2018-11-11T03:06:05.167Z,998.09
2018-11-11T03:06:31.318Z,998.07
2018-11-11T03:06:57.453Z,998.09
2018-11-11T03:07:23.613Z,998.04
2018-11-11T03:07:49.751Z,998.08
2018-11-11T03:08:15.881Z,998.06
2018-11-11T03:08:42.058Z,998.07
2018-11-11T03:09:08.208Z,998.04
2018-11-11T03:09:34.417Z,998.05
2018-11-11T03:10:00.550Z,998.08
2018-11-11T03:10:26.703Z,998.04
2018-11-11T03:10:52.830Z,998.12
2018-11-11T03:11:18.981Z,998.07
2018-11-11T03:11:45.114Z,998.11
2018-11-11T03:12:11.246Z,998.1
2018-11-11T03:12:37.401Z,998.04
2018-11-11T03:13:03.544Z,998.02
2018-11-11T03:13:29.691Z,998.04
2018-11-11T03:13:55.875Z,998.09
2018-11-11T03:14:22.023Z,998
2018-11-11T03:14:48.205Z,997.96
2018-11-11T03:15:14.410Z,998.01
2018-11-11T03:15:40.560Z,998
2018-11-11T03:16:06.724Z,997.92
2018-11-11T03:16:32.879Z,997.93
2018-11-11T03:16:59.016Z,997.96
2018-11-11T03:17:25.170Z,998
2018-11-11T03:17:51.333Z,997.96
2018-11-11T03:18:17.504Z,998.02
2018-11-11T03:18:43.643Z,997.97
2018-11-11T03:19:09.780Z,998
2018-11-11T03:19:35.932Z,997.97
2018-11-11T03:20:02.092Z,997.98
2018-11-11T03:20:28.239Z,997.95
2018-11-11T03:20:54.374Z,997.97
2018-11-11T03:21:20.505Z,998.01
2018-11-11T03:21:46.641Z,997.96
2018-11-11T03:22:12.777Z,997.98
2018-11-11T03:22:38.942Z,997.96
2018-11-11T03:23:05.092Z,997.98
2018-11-11T03:23:31.225Z,998.03
2018-11-11T03:23:57.399Z,998
2018-11-11T03:24:23.562Z,998.02
2018-11-11T03:24:49.691Z,998.03
2018-11-11T03:25:15.855Z,998.03
2018-11-11T03:25:42.006Z,998.02
2018-11-11T03:26:08.139Z,998.02
2018-11-11T03:26:34.295Z,998
2018-11-11T03:27:00.475Z,998.06
2018-11-11T03:27:26.612Z,997.99
2018-11-11T03:27:52.732Z,998
2018-11-11T03:28:18.888Z,998.03
2018-11-11T03:28:45.029Z,998.04
2018-11-11T03:29:11.173Z,998.02
2018-11-11T03:29:37.320Z,998.02
2018-11-11T03:30:03.458Z,998.07
2018-11-11T03:30:29.632Z,998.13
2018-11-11T03:30:55.770Z,998.1
2018-11-11T03:31:21.971Z,998.02
2018-11-11T03:31:48.147Z,998.02
2018-11-11T03:32:14.280Z,998.01
2018-11-11T03:32:40.439Z,998
2018-11-11T03:33:06.589Z,998.06
2018-11-11T03:33:32.721Z,998.02
2018-11-11T03:33:58.852Z,998.01
2018-11-11T03:34:24.991Z,997.92
2018-11-11T03:34:51.139Z,997.95
2018-11-11T03:35:17.290Z,997.96
2018-11-11T03:35:43.431Z,998.01
2018-11-11T03:36:09.581Z,997.99
2018-11-11T03:36:35.719Z,997.98
2018-11-11T03:37:01.896Z,997.98
2018-11-11T03:37:28.074Z,997.95
2018-11-11T03:37:54.238Z,997.96
2018-11-11T03:38:20.410Z,997.96
2018-11-11T03:38:46.549Z,998.02
2018-11-11T03:39:12.702Z,997.96
2018-11-11T03:39:38.834Z,997.99
2018-11-11T03:40:04.964Z,997.99
2018-11-11T03:40:31.150Z,997.97
2018-11-11T03:40:57.287Z,998.01
2018-11-11T03:41:23.439Z,997.98
2018-11-11T03:41:49.597Z,998.06
2018-11-11T03:42:15.725Z,997.98
2018-11-11T03:42:41.889Z,998.02
2018-11-11T03:43:08.045Z,998.04
2018-11-11T03:43:34.200Z,998
2018-11-11T03:44:00.357Z,998
2018-11-11T03:44:26.521Z,998.04
2018-11-11T03:44:52.680Z,998.07
2018-11-11T03:45:18.818Z,998.05
2018-11-11T03:45:44.948Z,998.12
2018-11-11T03:46:11.082Z,998.02
2018-11-11T03:46:37.234Z,998.02
2018-11-11T03:47:03.399Z,997.98
2018-11-11T03:47:29.520Z,998.01
2018-11-11T03:47:55.708Z,998.02
2018-11-11T03:48:21.832Z,998.03
2018-11-11T03:48:47.972Z,998.03
2018-11-11T03:49:14.135Z,998.05
2018-11-11T03:49:40.266Z,998.06
2018-11-11T03:50:06.403Z,998.09
2018-11-11T03:50:32.556Z,998.11
2018-11-11T03:50:58.712Z,998.13
2018-11-11T03:51:24.866Z,998.19
2018-11-11T03:51:51.044Z,998.14
2018-11-11T03:52:17.193Z,998.18
2018-11-11T03:52:43.351Z,998.21
2018-11-11T03:53:09.511Z,998.18
2018-11-11T03:53:35.687Z,998.2
2018-11-11T03:54:01.829Z,998.27
2018-11-11T03:54:27.956Z,998.21
2018-11-11T03:54:54.090Z,998.2
2018-11-11T03:55:20.255Z,998.17
2018-11-11T03:55:46.416Z,998.1
2018-11-11T03:56:12.551Z,998.14
2018-11-11T03:56:38.710Z,998.15
2018-11-11T03:57:04.870Z,998.17
2018-11-11T03:57:31.024Z,998.13
2018-11-11T03:57:57.206Z,998.13
2018-11-11T03:58:23.340Z,998.12
2018-11-11T03:58:49.610Z,998.1
2018-11-11T03:59:15.669Z,998.14
2018-11-11T03:59:41.830Z,998.18
2018-11-11T04:00:08.041Z,998.19
2018-11-11T04:00:34.215Z,998.18
2018-11-11T04:01:00.413Z,998.17
2018-11-11T04:01:26.559Z,998.15
2018-11-11T04:01:52.715Z,998.2
2018-11-11T04:02:18.846Z,998.18
2018-11-11T04:02:44.981Z,998.16
2018-11-11T04:03:11.113Z,998.17
2018-11-11T04:03:37.273Z,998.15
2018-11-11T04:04:03.424Z,998.17
2018-11-11T04:04:29.621Z,998.16
2018-11-11T04:04:55.776Z,998.14
2018-11-11T04:05:21.955Z,998.26
2018-11-11T04:05:48.136Z,998.2
2018-11-11T04:06:14.293Z,998.1
2018-11-11T04:06:40.444Z,998.13
2018-11-11T04:07:06.657Z,998.11
2018-11-11T04:07:32.850Z,998.08
2018-11-11T04:07:59.019Z,998.05
2018-11-11T04:08:25.159Z,998.08
2018-11-11T04:08:51.298Z,998.1
2018-11-11T04:09:17.426Z,998.13
2018-11-11T04:09:43.619Z,998.1
2018-11-11T04:10:09.925Z,998.06
2018-11-11T04:10:36.213Z,998.07
2018-11-11T04:11:02.395Z,998.07
2018-11-11T04:11:28.699Z,998.08
2018-11-11T04:11:54.919Z,998.03
2018-11-11T04:12:21.246Z,998.04
2018-11-11T04:12:47.424Z,998.04
2018-11-11T04:13:13.707Z,998.02
2018-11-11T04:13:39.840Z,998.04
2018-11-11T04:14:05.968Z,998.1
2018-11-11T04:14:32.133Z,998.11
2018-11-11T04:14:58.288Z,998.01
2018-11-11T04:15:24.468Z,998.11
2018-11-11T04:15:50.622Z,998.07
2018-11-11T04:16:16.753Z,998.09
2018-11-11T04:16:42.904Z,998.06
2018-11-11T04:17:09.016Z,998.08
2018-11-11T04:17:35.176Z,998.09
2018-11-11T04:18:01.359Z,998.12
2018-11-11T04:18:27.506Z,998.09
2018-11-11T04:18:53.642Z,998.12
2018-11-11T04:19:19.791Z,998.14
2018-11-11T04:19:45.918Z,998.11
2018-11-11T04:20:12.055Z,998.14
2018-11-11T04:20:38.264Z,998.12
2018-11-11T04:21:04.426Z,998.13
2018-11-11T04:21:30.588Z,998.16
2018-11-11T04:21:56.723Z,998.18
2018-11-11T04:22:22.855Z,998.18
2018-11-11T04:22:48.992Z,998.14
2018-11-11T04:23:15.165Z,998.14
2018-11-11T04:23:41.318Z,998.1
2018-11-11T04:24:07.467Z,998.13
2018-11-11T04:24:33.621Z,998.13
2018-11-11T04:24:59.777Z,998.15
2018-11-11T04:25:25.964Z,998.13
2018-11-11T04:25:52.142Z,998.11
2018-11-11T04:26:18.280Z,998.08
2018-11-11T04:26:44.457Z,998.06
2018-11-11T04:27:10.667Z,998.09
2018-11-11T04:27:36.851Z,998.1
2018-11-11T04:28:02.996Z,998.07
2018-11-11T04:28:29.155Z,998.1
2018-11-11T04:28:55.328Z,998.11
2018-11-11T04:29:21.447Z,998.1
2018-11-11T04:29:47.585Z,998.1
2018-11-11T04:30:13.811Z,998.17
2018-11-11T04:30:40.030Z,998.19
2018-11-11T04:31:06.201Z,998.08
2018-11-11T04:31:32.386Z,998.21
2018-11-11T04:31:58.520Z,998.14
2018-11-11T04:32:24.651Z,998.24
2018-11-11T04:32:50.794Z,998.14
2018-11-11T04:33:16.966Z,998.21
2018-11-11T04:33:43.145Z,998.21
2018-11-11T04:34:09.299Z,998.19
2018-11-11T04:34:35.440Z,998.23
2018-11-11T04:35:01.598Z,998.22
2018-11-11T04:35:27.733Z,998.27
2018-11-11T04:35:53.890Z,998.26
2018-11-11T04:36:20.032Z,998.25
2018-11-11T04:36:46.187Z,998.28
2018-11-11T04:37:12.336Z,998.29
2018-11-11T04:37:38.489Z,998.27
2018-11-11T04:38:04.624Z,998.36
2018-11-11T04:38:30.779Z,998.28
2018-11-11T04:38:57.024Z,998.28
2018-11-11T04:39:23.259Z,998.29
2018-11-11T04:39:49.291Z,998.25
2018-11-11T04:40:15.445Z,998.21
2018-11-11T04:40:41.605Z,998.23
2018-11-11T04:41:07.761Z,998.24
2018-11-11T04:41:33.911Z,998.24
2018-11-11T04:42:00.093Z,998.25
2018-11-11T04:42:26.227Z,998.21
2018-11-11T04:42:52.382Z,998.25
2018-11-11T04:43:18.514Z,998.18
2018-11-11T04:43:44.677Z,998.2
2018-11-11T04:44:10.833Z,998.19
2018-11-11T04:44:36.973Z,998.19
2018-11-11T04:45:03.121Z,998.16
2018-11-11T04:45:29.317Z,998.15
2018-11-11T04:45:55.443Z,998.16
2018-11-11T04:46:21.747Z,998.05
2018-11-11T04:46:47.734Z,998.09
2018-11-11T04:47:13.871Z,998.1
2018-11-11T04:47:39.996Z,998.07
2018-11-11T04:48:06.166Z,998.13
2018-11-11T04:48:32.335Z,998.07
2018-11-11T04:48:58.486Z,998.07
2018-11-11T04:49:24.611Z,998.06
2018-11-11T04:49:50.760Z,998.09
2018-11-11T04:50:16.914Z,998.09
2018-11-11T04:50:43.082Z,998.04
2018-11-11T04:51:09.260Z,998.06
2018-11-11T04:51:35.394Z,998.05
2018-11-11T04:52:01.561Z,997.97
2018-11-11T04:52:27.713Z,998.05
2018-11-11T04:52:53.868Z,997.99
2018-11-11T04:53:20.001Z,998.07
2018-11-11T04:53:46.167Z,998.08
2018-11-11T04:54:12.300Z,998.02
2018-11-11T04:54:38.478Z,997.96
2018-11-11T04:55:04.610Z,998.05
2018-11-11T04:55:30.750Z,998.04
2018-11-11T04:55:56.883Z,998.02
2018-11-11T04:56:23.043Z,998.03
2018-11-11T04:56:49.174Z,998.04
2018-11-11T04:57:15.327Z,998.06
2018-11-11T04:57:41.572Z,998.17
2018-11-11T04:58:07.679Z,998.12
2018-11-11T04:58:33.815Z,998.17
2018-11-11T04:58:59.941Z,998.15
2018-11-11T04:59:26.074Z,998.1
2018-11-11T04:59:52.233Z,998.14
2018-11-11T05:00:18.386Z,998.15
2018-11-11T05:00:44.567Z,998.2
2018-11-11T05:01:10.706Z,998.23
2018-11-11T05:01:36.983Z,998.19
2018-11-11T05:02:03.112Z,998.21
2018-11-11T05:02:29.245Z,998.19
2018-11-11T05:02:55.375Z,998.2
2018-11-11T05:03:21.517Z,998.21
2018-11-11T05:03:47.663Z,998.24
2018-11-11T05:04:13.818Z,998.18
2018-11-11T05:04:40.050Z,998.17
2018-11-11T05:05:06.123Z,998.16
2018-11-11T05:05:32.254Z,998.23
2018-11-11T05:05:58.388Z,998.21
2018-11-11T05:06:24.578Z,998.19
2018-11-11T05:06:50.729Z,998.21
2018-11-11T05:07:16.859Z,998.22
2018-11-11T05:07:42.992Z,998.19
2018-11-11T05:08:09.131Z,998.2
2018-11-11T05:08:35.252Z,998.26
2018-11-11T05:09:01.396Z,998.28
2018-11-11T05:09:27.570Z,998.22
2018-11-11T05:09:53.727Z,998.26
2018-11-11T05:10:19.857Z,998.34
2018-11-11T05:10:46.019Z,998.2
2018-11-11T05:11:12.178Z,998.28
2018-11-11T05:11:38.311Z,998.21
2018-11-11T05:12:04.465Z,998.26
2018-11-11T05:12:30.599Z,998.26
2018-11-11T05:12:56.749Z,998.33
2018-11-11T05:13:22.878Z,998.24
2018-11-11T05:13:49.021Z,998.23
2018-11-11T05:14:15.142Z,998.23
2018-11-11T05:14:41.273Z,998.24
2018-11-11T05:15:07.405Z,998.24
2018-11-11T05:15:33.555Z,998.23
2018-11-11T05:15:59.727Z,998.25
2018-11-11T05:16:25.892Z,998.19
2018-11-11T05:16:52.023Z,998.22
2018-11-11T05:17:18.159Z,998.3
2018-11-11T05:17:44.297Z,998.28
2018-11-11T05:18:10.429Z,998.33
2018-11-11T05:18:36.576Z,998.25
2018-11-11T05:19:02.712Z,998.32
2018-11-11T05:19:28.865Z,998.28
2018-11-11T05:19:55.023Z,998.25
2018-11-11T05:20:21.233Z,998.21
2018-11-11T05:20:47.387Z,998.24
2018-11-11T05:21:13.516Z,998.23
2018-11-11T05:21:39.742Z,998.2
2018-11-11T05:22:05.852Z,998.25
2018-11-11T05:22:31.979Z,998.25
2018-11-11T05:22:58.111Z,998.23
2018-11-11T05:23:24.269Z,998.23
2018-11-11T05:23:50.404Z,998.23
2018-11-11T05:24:16.536Z,998.23
2018-11-11T05:24:42.669Z,998.24
2018-11-11T05:25:08.802Z,998.24
2018-11-11T05:25:34.936Z,998.23
2018-11-11T05:26:01.069Z,998.21
2018-11-11T05:26:27.196Z,998.22
2018-11-11T05:26:53.329Z,998.17
2018-11-11T05:27:19.504Z,998.21
2018-11-11T05:27:45.667Z,998.21